createdAt,value
2023-04-15T00:01:39.196Z,97357.34
2023-04-15T00:04:33.804Z,97358.92
2023-04-15T00:07:28.118Z,97361.06
2023-04-15T00:10:21.931Z,97360.03
2023-04-15T00:13:16.625Z,97364.86
2023-04-15T00:16:12.419Z,97361.54
2023-04-15T00:19:06.754Z,97373.71
2023-04-15T00:21:48.111Z,97370.40
2023-04-15T00:24:43.043Z,97367.86
2023-04-15T00:27:36.879Z,97375.14
2023-04-15T00:30:31.500Z,97373.01
2023-04-15T00:33:25.434Z,97371.10
2023-04-15T00:36:19.473Z,97377.80
2023-04-15T00:39:13.421Z,97385.40
2023-04-15T00:42:07.154Z,97398.36
2023-04-15T00:45:01.204Z,97398.46
2023-04-15T00:47:55.778Z,97405.08
2023-04-15T00:50:51.232Z,97408.34
2023-04-15T00:53:45.025Z,97418.23
2023-04-15T00:56:40.200Z,97416.94
2023-04-15T00:59:34.538Z,97422.81
2023-04-15T01:02:28.298Z,97420.34
2023-04-15T01:05:22.320Z,97423.42
2023-04-15T01:08:16.146Z,97425.79
2023-04-15T01:11:10.651Z,97420.19
2023-04-15T01:14:04.849Z,97416.85
2023-04-15T01:16:58.607Z,97414.79
2023-04-15T01:19:52.673Z,97415.57
2023-04-15T01:22:46.535Z,97415.66
2023-04-15T01:25:40.582Z,97417.00
2023-04-15T01:28:34.458Z,97415.95
2023-04-15T01:31:28.331Z,97409.65
2023-04-15T01:34:22.297Z,97414.11
2023-04-15T01:37:16.392Z,97420.96
2023-04-15T01:40:13.847Z,97420.63
2023-04-15T01:43:07.510Z,97418.39
2023-04-15T01:46:01.725Z,97417.51
2023-04-15T01:48:55.767Z,97417.23
2023-04-15T01:51:49.604Z,97424.04
2023-04-15T01:54:43.341Z,97423.50
2023-04-15T01:57:37.081Z,97426.20
2023-04-15T02:00:32.575Z,97422.17
2023-04-15T02:03:27.746Z,97427.00
2023-04-15T02:06:21.624Z,97437.05
2023-04-15T02:09:15.375Z,97445.56
2023-04-15T02:12:09.577Z,97450.55
2023-04-15T02:15:03.475Z,97454.72
2023-04-15T02:17:59.300Z,97453.15
2023-04-15T02:20:53.908Z,97453.92
2023-04-15T02:23:48.712Z,97455.35
2023-04-15T02:26:42.353Z,97454.71
2023-04-15T02:29:37.191Z,97453.06
2023-04-15T02:32:31.657Z,97454.59
2023-04-15T02:35:25.947Z,97452.73
2023-04-15T02:38:19.656Z,97454.95
2023-04-15T02:41:13.688Z,97460.39
2023-04-15T02:44:11.314Z,97464.19
2023-04-15T02:47:07.008Z,97462.20
2023-04-15T02:50:01.817Z,97469.01
2023-04-15T02:52:55.399Z,97473.26
2023-04-15T02:55:49.212Z,97478.81
2023-04-15T02:58:44.717Z,97480.14
2023-04-15T03:01:38.474Z,97484.73
2023-04-15T03:04:32.179Z,97489.31
2023-04-15T03:07:25.910Z,97491.27
2023-04-15T03:10:20.038Z,97494.58
2023-04-15T03:13:14.056Z,97502.27
2023-04-15T03:16:08.750Z,97501.20
2023-04-15T03:19:02.655Z,97511.64
2023-04-15T03:21:57.133Z,97508.00
2023-04-15T03:24:50.774Z,97507.16
2023-04-15T03:27:44.723Z,97501.56
2023-04-15T03:30:38.396Z,97506.67
2023-04-15T03:33:32.153Z,97505.34
2023-04-15T03:36:27.279Z,97509.59
2023-04-15T03:39:21.434Z,97513.30
2023-04-15T03:42:15.636Z,97518.27
2023-04-15T03:45:11.665Z,97520.81
2023-04-15T03:48:16.713Z,97526.08
2023-04-15T03:51:12.396Z,97534.98
2023-04-15T03:54:06.391Z,97537.67
2023-04-15T03:56:59.992Z,97542.59
2023-04-15T03:59:53.731Z,97544.32
2023-04-15T04:02:47.578Z,97543.52
2023-04-15T04:05:44.052Z,97549.14
2023-04-15T04:08:37.788Z,97550.31
2023-04-15T04:11:31.758Z,97551.65
2023-04-15T04:14:29.665Z,97550.30
2023-04-15T04:17:23.609Z,97547.86
2023-04-15T04:20:17.596Z,97551.25
2023-04-15T04:23:11.639Z,97562.70
2023-04-15T04:26:05.361Z,97564.23
2023-04-15T04:28:59.099Z,97570.36
2023-04-15T04:31:52.829Z,97573.55
2023-04-15T04:34:46.788Z,97573.67
2023-04-15T04:37:40.625Z,97584.39
2023-04-15T04:40:34.977Z,97588.02
2023-04-15T04:43:28.917Z,97590.14
2023-04-15T04:46:23.787Z,97587.92
2023-04-15T04:49:17.627Z,97590.84
2023-04-15T04:52:11.635Z,97591.20
2023-04-15T04:55:05.922Z,97588.90
2023-04-15T04:58:01.257Z,97586.17
2023-04-15T05:00:55.244Z,97587.30
2023-04-15T05:03:45.799Z,97583.38
2023-04-15T05:06:39.618Z,97586.85
2023-04-15T05:09:36.111Z,97585.56
2023-04-15T05:12:29.995Z,97588.48
2023-04-15T05:15:23.970Z,97589.66
2023-04-15T05:18:17.649Z,97581.65
2023-04-15T05:21:11.863Z,97587.88
2023-04-15T05:24:07.131Z,97586.58
2023-04-15T05:27:01.905Z,97589.54
2023-04-15T05:29:56.611Z,97589.66
2023-04-15T05:32:50.975Z,97593.39
2023-04-15T05:35:44.633Z,97600.06
2023-04-15T05:38:38.459Z,97599.67
2023-04-15T05:41:32.437Z,97601.81
2023-04-15T05:44:26.894Z,97603.92
2023-04-15T05:47:20.492Z,97600.27
2023-04-15T05:50:15.129Z,97605.30
2023-04-15T05:53:08.998Z,97611.06
2023-04-15T05:56:02.636Z,97618.23
2023-04-15T05:58:56.953Z,97618.63
2023-04-15T06:01:52.078Z,97619.20
2023-04-15T06:04:45.744Z,97622.51
2023-04-15T06:07:39.704Z,97627.59
2023-04-15T06:10:36.723Z,97628.13
2023-04-15T06:13:30.655Z,97628.30
2023-04-15T06:16:24.341Z,97634.25
2023-04-15T06:19:18.379Z,97639.16
2023-04-15T06:22:12.109Z,97639.59
2023-04-15T06:25:08.162Z,97636.52
2023-04-15T06:28:02.312Z,97634.11
2023-04-15T06:30:57.326Z,97634.58
2023-04-15T06:33:51.376Z,97638.19
2023-04-15T06:36:45.558Z,97647.75
2023-04-15T06:39:39.587Z,97642.77
2023-04-15T06:42:34.075Z,97645.79
2023-04-15T06:45:27.805Z,97649.55
2023-04-15T06:48:22.070Z,97649.05
2023-04-15T06:51:15.764Z,97655.66
2023-04-15T06:54:09.858Z,97649.45
2023-04-15T06:57:03.665Z,97656.35
2023-04-15T06:59:57.356Z,97662.53
2023-04-15T07:03:13.275Z,97665.85
2023-04-15T07:06:07.688Z,97665.48
2023-04-15T07:09:02.315Z,97666.25
2023-04-15T07:11:56.522Z,97666.33
2023-04-15T07:14:50.603Z,97671.91
2023-04-15T07:17:45.014Z,97678.52
2023-04-15T07:20:38.918Z,97682.70
2023-04-15T07:23:32.766Z,97682.16
2023-04-15T07:26:26.387Z,97679.66
2023-04-15T07:29:20.029Z,97681.38
2023-04-15T07:32:13.644Z,97682.48
2023-04-15T07:35:08.429Z,97691.82
2023-04-15T07:38:02.498Z,97694.66
2023-04-15T07:40:56.597Z,97689.56
2023-04-15T07:43:50.752Z,97688.20
2023-04-15T07:46:44.528Z,97684.69
2023-04-15T07:49:38.139Z,97683.96
2023-04-15T07:52:35.295Z,97674.01
2023-04-15T07:55:30.542Z,97676.13
2023-04-15T07:58:24.255Z,97673.74
2023-04-15T08:01:17.963Z,97667.11
2023-04-15T08:04:12.442Z,97672.70
2023-04-15T08:07:07.099Z,97670.03
2023-04-15T08:10:00.647Z,97671.35
2023-04-15T08:12:55.330Z,97676.36
2023-04-15T08:15:54.902Z,97673.90
2023-04-15T08:18:48.756Z,97675.09
2023-04-15T08:21:42.465Z,97678.93
2023-04-15T08:24:21.341Z,97677.78
2023-04-15T08:27:15.036Z,97679.38
2023-04-15T08:30:11.603Z,97676.97
2023-04-15T08:33:05.273Z,97677.83
2023-04-15T08:35:58.994Z,97674.59
2023-04-15T08:38:52.694Z,97671.45
2023-04-15T08:41:53.249Z,97671.19
2023-04-15T08:44:49.391Z,97675.14
2023-04-15T08:47:44.211Z,97679.45
2023-04-15T08:50:38.119Z,97682.58
2023-04-15T08:53:33.733Z,97676.12
2023-04-15T08:56:29.321Z,97680.16
2023-04-15T08:59:23.665Z,97679.66
2023-04-15T09:02:17.631Z,97682.02
2023-04-15T09:05:13.385Z,97683.55
2023-04-15T09:08:07.600Z,97687.20
2023-04-15T09:11:01.470Z,97689.46
2023-04-15T09:13:55.438Z,97690.73
2023-04-15T09:17:06.865Z,97690.23
2023-04-15T09:20:15.921Z,97690.14
2023-04-15T09:23:17.618Z,97690.03
2023-04-15T09:26:11.500Z,97689.84
2023-04-15T09:29:11.020Z,97687.27
2023-04-15T09:32:14.693Z,97690.73
2023-04-15T09:35:17.258Z,97686.90
2023-04-15T09:38:13.044Z,97688.48
2023-04-15T09:41:18.456Z,97684.68
2023-04-15T09:44:25.176Z,97687.28
2023-04-15T09:47:33.314Z,97684.54
2023-04-15T09:50:30.667Z,97680.59
2023-04-15T09:53:26.396Z,97677.34
2023-04-15T09:56:27.937Z,97681.08
2023-04-15T09:59:21.921Z,97676.70
2023-04-15T10:02:16.925Z,97678.55
2023-04-15T10:05:15.006Z,97678.70
2023-04-15T10:08:09.431Z,97681.84
2023-04-15T10:11:05.666Z,97682.85
2023-04-15T10:14:00.326Z,97682.34
2023-04-15T10:16:57.740Z,97681.40
2023-04-15T10:19:54.493Z,97680.39
2023-04-15T10:22:49.806Z,97685.27
2023-04-15T10:25:44.416Z,97692.05
2023-04-15T10:28:38.106Z,97686.15
2023-04-15T10:31:32.540Z,97684.82
2023-04-15T10:34:27.943Z,97687.55
2023-04-15T10:37:37.375Z,97688.60
2023-04-15T10:40:33.653Z,97684.66
2023-04-15T10:43:30.415Z,97687.61
2023-04-15T10:46:37.209Z,97690.01
2023-04-15T10:49:31.263Z,97686.64
2023-04-15T10:52:30.041Z,97692.45
2023-04-15T10:55:27.419Z,97690.87
2023-04-15T10:58:24.296Z,97690.64
2023-04-15T11:01:18.105Z,97691.20
2023-04-15T11:04:13.106Z,97692.11
2023-04-15T11:07:11.562Z,97688.04
2023-04-15T11:10:26.042Z,97689.22
2023-04-15T11:13:28.933Z,97686.66
2023-04-15T11:16:23.005Z,97681.47
2023-04-15T11:19:16.735Z,97681.98
2023-04-15T11:22:14.403Z,97686.34
2023-04-15T11:25:07.480Z,97687.54
2023-04-15T11:28:03.299Z,97692.30
2023-04-15T11:30:57.945Z,97689.33
2023-04-15T11:34:12.128Z,97691.36
2023-04-15T11:37:08.311Z,97686.05
2023-04-15T11:40:03.545Z,97690.42
2023-04-15T11:43:11.512Z,97691.33
2023-04-15T11:46:05.773Z,97696.52
2023-04-15T11:49:00.331Z,97696.17
2023-04-15T11:51:54.170Z,97696.35
2023-04-15T11:54:48.282Z,97699.52
2023-04-15T11:57:42.079Z,97694.55
2023-04-15T12:00:36.576Z,97697.79
2023-04-15T12:03:33.038Z,97696.50
2023-04-15T12:06:34.998Z,97700.02
2023-04-15T12:09:29.979Z,97699.30
2023-04-15T12:12:27.971Z,97699.92
2023-04-15T12:15:25.344Z,97702.27
2023-04-15T12:18:26.218Z,97702.56
2023-04-15T12:21:21.811Z,97702.38
2023-04-15T12:24:16.344Z,97703.73
2023-04-15T12:27:12.440Z,97704.66
2023-04-15T12:30:11.690Z,97707.73
2023-04-15T12:33:06.355Z,97706.77
2023-04-15T12:36:00.533Z,97704.61
2023-04-15T12:39:07.796Z,97704.80
2023-04-15T12:42:02.366Z,97705.59
2023-04-15T12:44:58.430Z,97700.30
2023-04-15T12:47:52.215Z,97706.00
2023-04-15T12:50:45.827Z,97709.39
2023-04-15T12:53:39.776Z,97704.98
2023-04-15T12:56:33.935Z,97704.40
2023-04-15T12:59:27.734Z,97704.72
2023-04-15T13:02:25.698Z,97700.91
2023-04-15T13:05:19.838Z,97695.85
2023-04-15T13:08:13.514Z,97695.86
2023-04-15T13:11:07.603Z,97695.36
2023-04-15T13:14:02.316Z,97696.45
2023-04-15T13:16:56.454Z,97701.25
2023-04-15T13:19:50.455Z,97704.52
2023-04-15T13:22:44.432Z,97699.46
2023-04-15T13:25:38.175Z,97701.86
2023-04-15T13:28:31.948Z,97707.17
2023-04-15T13:31:25.721Z,97703.76
2023-04-15T13:34:19.735Z,97707.25
2023-04-15T13:37:14.074Z,97704.38
2023-04-15T13:40:09.997Z,97707.28
2023-04-15T13:43:04.759Z,97708.93
2023-04-15T13:45:59.073Z,97711.01
2023-04-15T13:48:53.030Z,97709.75
2023-04-15T13:51:46.994Z,97713.69
2023-04-15T13:54:40.899Z,97714.02
2023-04-15T13:57:35.452Z,97717.98
2023-04-15T14:00:29.511Z,97722.48
2023-04-15T14:03:23.264Z,97723.80
2023-04-15T14:06:17.274Z,97723.50
2023-04-15T14:09:11.397Z,97723.33
2023-04-15T14:12:05.981Z,97722.80
2023-04-15T14:14:59.834Z,97726.25
2023-04-15T14:17:53.981Z,97728.23
2023-04-15T14:20:48.072Z,97730.90
2023-04-15T14:23:41.969Z,97733.50
2023-04-15T14:26:35.788Z,97737.30
2023-04-15T14:29:29.970Z,97735.21
2023-04-15T14:32:26.256Z,97734.99
2023-04-15T14:35:20.897Z,97737.89
2023-04-15T14:38:14.833Z,97738.55
2023-04-15T14:41:12.298Z,97738.23
2023-04-15T14:44:06.138Z,97740.15
2023-04-15T14:47:00.033Z,97741.36
2023-04-15T14:50:02.399Z,97741.48
2023-04-15T14:52:56.250Z,97743.82
2023-04-15T14:55:50.528Z,97748.75
2023-04-15T14:58:44.665Z,97751.51
2023-04-15T15:01:40.296Z,97755.30
2023-04-15T15:04:36.034Z,97758.26
2023-04-15T15:07:30.070Z,97755.42
2023-04-15T15:10:33.698Z,97762.09
2023-04-15T15:13:38.895Z,97764.94
2023-04-15T15:16:33.265Z,97760.44
2023-04-15T15:19:27.439Z,97767.18
2023-04-15T15:22:21.513Z,97768.19
2023-04-15T15:25:15.361Z,97771.34
2023-04-15T15:28:09.449Z,97768.70
2023-04-15T15:31:04.517Z,97773.52
2023-04-15T15:33:58.651Z,97776.88
2023-04-15T15:36:53.059Z,97777.16
2023-04-15T15:39:50.841Z,97771.32
2023-04-15T15:42:45.146Z,97772.08
2023-04-15T15:45:38.965Z,97778.55
2023-04-15T15:48:34.268Z,97779.46
2023-04-15T15:51:28.769Z,97786.46
2023-04-15T15:54:22.676Z,97780.83
2023-04-15T15:57:16.860Z,97784.37
2023-04-15T16:00:13.945Z,97788.80
2023-04-15T16:03:08.172Z,97789.30
2023-04-15T16:06:02.138Z,97794.89
2023-04-15T16:08:55.879Z,97792.91
2023-04-15T16:11:50.304Z,97791.36
2023-04-15T16:14:44.415Z,97793.20
2023-04-15T16:17:38.407Z,97793.61
2023-04-15T16:20:32.179Z,97795.48
2023-04-15T16:23:26.008Z,97797.34
2023-04-15T16:26:20.080Z,97794.46
2023-04-15T16:29:14.272Z,97792.52
2023-04-15T16:32:09.469Z,97800.16
2023-04-15T16:35:03.595Z,97801.27
2023-04-15T16:37:57.785Z,97804.45
2023-04-15T16:40:51.567Z,97807.15
2023-04-15T16:43:44.626Z,97810.40
2023-04-15T16:46:40.802Z,97817.04
2023-04-15T16:49:35.580Z,97822.38
2023-04-15T16:52:30.231Z,97827.42
2023-04-15T16:55:24.634Z,97829.91
2023-04-15T16:58:18.553Z,97833.45
2023-04-15T17:01:12.335Z,97840.15
2023-04-15T17:04:06.738Z,97848.92
2023-04-15T17:07:00.433Z,97854.48
2023-04-15T17:09:54.904Z,97859.61
2023-04-15T17:12:49.780Z,97870.28
2023-04-15T17:15:43.892Z,97880.59
2023-04-15T17:18:37.791Z,97879.44
2023-04-15T17:21:32.647Z,97879.67
2023-04-15T17:24:26.571Z,97893.55
2023-04-15T17:27:21.272Z,97907.84
2023-04-15T17:30:16.226Z,97923.21
2023-04-15T17:33:55.826Z,97927.68
2023-04-15T17:36:24.745Z,97934.39
2023-04-15T17:39:18.931Z,97937.04
2023-04-15T17:42:14.448Z,97938.19
2023-04-15T17:45:10.798Z,97953.67
2023-04-15T17:48:05.620Z,97967.58
2023-04-15T17:50:59.671Z,97967.65
2023-04-15T17:53:53.637Z,97971.95
2023-04-15T17:56:49.079Z,97991.38
2023-04-15T17:59:44.042Z,98009.48
2023-04-15T18:02:38.116Z,98012.21
2023-04-15T18:05:32.308Z,98009.91
2023-04-15T18:08:26.118Z,97997.02
2023-04-15T18:11:20.535Z,97984.80
2023-04-15T18:14:26.669Z,97995.59
2023-04-15T18:17:27.600Z,98033.63
2023-04-15T18:20:21.726Z,98040.45
2023-04-15T18:23:15.983Z,98048.91
2023-04-15T18:26:10.259Z,98059.80
2023-04-15T18:29:04.567Z,98066.23
2023-04-15T18:31:59.958Z,98073.10
2023-04-15T18:34:55.567Z,98068.45
2023-04-15T18:37:49.704Z,98065.95
2023-04-15T18:40:43.807Z,98067.75
2023-04-15T18:43:37.852Z,98069.70
2023-04-15T18:46:31.947Z,98065.06
2023-04-15T18:49:27.166Z,98067.58
2023-04-15T18:52:21.409Z,98073.32
2023-04-15T18:55:16.567Z,98078.53
2023-04-15T18:58:12.631Z,98074.63
2023-04-15T19:01:06.778Z,98067.95
2023-04-15T19:04:03.343Z,98070.08
2023-04-15T19:06:58.732Z,98075.67
2023-04-15T19:09:52.566Z,98078.13
2023-04-15T19:12:46.443Z,98082.73
2023-04-15T19:15:40.354Z,98086.08
2023-04-15T19:18:34.566Z,98090.73
2023-04-15T19:21:29.998Z,98095.30
2023-04-15T19:24:24.287Z,98096.21
2023-04-15T19:27:18.242Z,98089.02
2023-04-15T19:30:14.328Z,98087.33
2023-04-15T19:33:08.591Z,98089.02
2023-04-15T19:36:05.348Z,98094.31
2023-04-15T19:39:00.115Z,98091.02
2023-04-15T19:41:55.528Z,98095.56
2023-04-15T19:44:50.161Z,98092.12
2023-04-15T19:47:44.285Z,98094.65
2023-04-15T19:50:38.256Z,98096.96
2023-04-15T19:53:32.427Z,98102.45
2023-04-15T19:56:26.697Z,98100.39
2023-04-15T19:59:20.564Z,98099.33
2023-04-15T20:02:14.444Z,98102.25
2023-04-15T20:05:10.537Z,98100.65
2023-04-15T20:08:04.641Z,98101.25
2023-04-15T20:10:59.541Z,98106.17
2023-04-15T20:13:53.223Z,98108.58
2023-04-15T20:16:47.686Z,98114.36
2023-04-15T20:19:41.339Z,98113.13
2023-04-15T20:22:35.403Z,98113.32
2023-04-15T20:25:29.305Z,98111.37
2023-04-15T20:28:26.119Z,98108.63
2023-04-15T20:31:20.129Z,98116.06
2023-04-15T20:34:13.965Z,98111.31
2023-04-15T20:37:08.043Z,98110.73
2023-04-15T20:40:02.505Z,98112.23
2023-04-15T20:42:56.321Z,98113.23
2023-04-15T20:45:50.628Z,98117.78
2023-04-15T20:48:44.296Z,98124.45
2023-04-15T20:51:38.324Z,98128.43
2023-04-15T20:54:32.152Z,98127.58
2023-04-15T20:57:25.918Z,98125.45
2023-04-15T21:00:19.761Z,98125.17
2023-04-15T21:03:13.930Z,98127.65
2023-04-15T21:06:07.939Z,98129.77
2023-04-15T21:09:01.560Z,98142.45
2023-04-15T21:12:01.071Z,98140.91
2023-04-15T21:14:55.524Z,98141.81
2023-04-15T21:17:49.144Z,98138.88
2023-04-15T21:20:43.495Z,98143.23
2023-04-15T21:23:37.230Z,98147.70
2023-04-15T21:26:30.912Z,98155.61
2023-04-15T21:29:24.959Z,98156.77
2023-04-15T21:32:18.769Z,98159.55
2023-04-15T21:35:13.565Z,98161.42
2023-04-15T21:38:07.198Z,98169.92
2023-04-15T21:41:06.424Z,98171.69
2023-04-15T21:44:00.066Z,98175.61
2023-04-15T21:46:54.363Z,98181.89
2023-04-15T21:49:47.975Z,98180.42
2023-04-15T21:52:42.062Z,98180.46
2023-04-15T21:55:35.892Z,98190.05
2023-04-15T21:58:29.498Z,98192.55
2023-04-15T22:01:23.067Z,98194.73
2023-04-15T22:04:17.087Z,98200.31
2023-04-15T22:07:10.874Z,98208.53
2023-04-15T22:10:05.049Z,98210.56
2023-04-15T22:13:02.434Z,98215.77
2023-04-15T22:15:46.311Z,98224.42
2023-04-15T22:18:39.948Z,98226.11
2023-04-15T22:21:33.541Z,98224.90
2023-04-15T22:24:38.182Z,98228.15
2023-04-15T22:27:34.888Z,98231.30
2023-04-15T22:30:29.239Z,98236.70
2023-04-15T22:33:23.312Z,98239.95
2023-04-15T22:36:17.148Z,98237.66
2023-04-15T22:39:11.061Z,98243.33
2023-04-15T22:42:04.747Z,98248.23
2023-04-15T22:44:58.597Z,98251.52
2023-04-15T22:47:52.190Z,98250.06
2023-04-15T22:50:46.145Z,98258.20
2023-04-15T22:53:39.708Z,98261.36
2023-04-15T22:56:33.380Z,98265.45
2023-04-15T22:59:27.232Z,98271.42
2023-04-15T23:02:21.063Z,98270.73
2023-04-15T23:05:15.556Z,98274.73
2023-04-15T23:08:09.783Z,98281.20
2023-04-15T23:11:03.741Z,98284.58
2023-04-15T23:13:57.418Z,98286.71
2023-04-15T23:16:51.135Z,98285.73
2023-04-15T23:19:44.673Z,98287.80
2023-04-15T23:22:38.535Z,98287.70
2023-04-15T23:25:32.214Z,98283.56
2023-04-15T23:28:26.050Z,98288.52
2023-04-15T23:31:19.761Z,98290.22
2023-04-15T23:34:13.613Z,98293.08
2023-04-15T23:37:07.364Z,98296.12
2023-04-15T23:40:01.033Z,98298.08
2023-04-15T23:42:54.634Z,98300.40
2023-04-15T23:45:48.448Z,98303.23
2023-04-15T23:48:42.115Z,98302.09
2023-04-15T23:51:36.184Z,98303.50
2023-04-15T23:54:20.073Z,98303.27
2023-04-15T23:57:14.204Z,98306.11
